Terminal Aerodrome Forecast
Issued by NWS

Home | Current Version | Previous Version | Text Only | Print | Product List | Glossary Off
Versions: 1 2 3 4 5 6 7 8 9 10 11 12 13 14 15 16 17 18 19 20

000
FTUS43 KGRB 181234 AAA
TAFRHI
TAF AMD
KRHI 181234Z 1813/1912 35004KT 3SM -FZDZSN BR OVC004
      TEMPO 1813/1815 1SM BR BKN002
     FM181500 34009KT 2SM BR OVC008
     FM181800 32011KT P6SM BKN025
     FM190100 30010KT P6SM BKN035=

USA.gov is the U.S. government's official web portal to all federal, state and local government web resources and services.